sensor_id;sensor_type;location;lat;lon;timestamp;P1;durP1;ratioP1;P2;durP2;ratioP2
8632;SDS011;4354;49.832;10.746;2022-07-15T00:00:04;1.90;;;1.00;;
8632;SDS011;4354;49.832;10.746;2022-07-15T00:02:32;3.93;;;1.30;;
8632;SDS011;4354;49.832;10.746;2022-07-15T00:04:59;2.33;;;1.20;;
8632;SDS011;4354;49.832;10.746;2022-07-15T00:07:26;3.33;;;1.80;;
8632;SDS011;4354;49.832;10.746;2022-07-15T00:09:53;2.23;;;1.33;;
8632;SDS011;4354;49.832;10.746;2022-07-15T00:12:38;3.93;;;1.30;;
8632;SDS011;4354;49.832;10.746;2022-07-15T00:15:06;2.40;;;1.40;;
8632;SDS011;4354;49.832;10.746;2022-07-15T00:17:34;2.80;;;1.60;;
8632;SDS011;4354;49.832;10.746;2022-07-15T00:20:01;3.57;;;1.57;;
8632;SDS011;4354;49.832;10.746;2022-07-15T00:22:28;10.53;;;1.70;;
8632;SDS011;4354;49.832;10.746;2022-07-15T00:24:55;3.60;;;1.80;;
8632;SDS011;4354;49.832;10.746;2022-07-15T00:27:22;5.80;;;1.77;;
8632;SDS011;4354;49.832;10.746;2022-07-15T00:29:49;4.17;;;1.70;;
8632;SDS011;4354;49.832;10.746;2022-07-15T00:32:17;4.90;;;1.70;;
8632;SDS011;4354;49.832;10.746;2022-07-15T00:34:44;7.43;;;1.93;;
8632;SDS011;4354;49.832;10.746;2022-07-15T00:37:11;5.13;;;1.80;;
8632;SDS011;4354;49.832;10.746;2022-07-15T00:39:38;4.30;;;1.57;;
8632;SDS011;4354;49.832;10.746;2022-07-15T00:42:04;4.50;;;1.63;;
8632;SDS011;4354;49.832;10.746;2022-07-15T00:44:31;3.97;;;1.83;;
8632;SDS011;4354;49.832;10.746;2022-07-15T00:46:59;3.10;;;1.80;;
8632;SDS011;4354;49.832;10.746;2022-07-15T00:49:26;3.57;;;1.70;;
8632;SDS011;4354;49.832;10.746;2022-07-15T00:51:54;3.50;;;1.63;;
8632;SDS011;4354;49.832;10.746;2022-07-15T00:54:22;4.33;;;1.80;;
8632;SDS011;4354;49.832;10.746;2022-07-15T00:56:55;2.73;;;1.67;;
8632;SDS011;4354;49.832;10.746;2022-07-15T00:59:24;6.03;;;2.20;;
8632;SDS011;4354;49.832;10.746;2022-07-15T01:01:54;3.53;;;1.67;;
8632;SDS011;4354;49.832;10.746;2022-07-15T01:04:23;8.40;;;1.70;;
8632;SDS011;4354;49.832;10.746;2022-07-15T01:06:50;4.50;;;1.73;;
8632;SDS011;4354;49.832;10.746;2022-07-15T01:09:17;2.00;;;1.50;;
8632;SDS011;4354;49.832;10.746;2022-07-15T01:11:45;8.63;;;2.20;;
8632;SDS011;4354;49.832;10.746;2022-07-15T01:14:13;4.30;;;1.80;;
8632;SDS011;4354;49.832;10.746;2022-07-15T01:16:40;2.60;;;1.50;;
8632;SDS011;4354;49.832;10.746;2022-07-15T01:19:07;5.73;;;1.97;;
8632;SDS011;4354;49.832;10.746;2022-07-15T01:21:34;7.00;;;2.27;;
8632;SDS011;4354;49.832;10.746;2022-07-15T01:24:01;3.40;;;1.90;;
8632;SDS011;4354;49.832;10.746;2022-07-15T01:26:28;3.87;;;1.70;;
8632;SDS011;4354;49.832;10.746;2022-07-15T01:28:55;3.03;;;1.80;;
8632;SDS011;4354;49.832;10.746;2022-07-15T01:31:22;5.03;;;2.00;;
8632;SDS011;4354;49.832;10.746;2022-07-15T01:33:49;3.90;;;1.90;;
8632;SDS011;4354;49.832;10.746;2022-07-15T01:36:16;5.33;;;2.00;;
8632;SDS011;4354;49.832;10.746;2022-07-15T01:38:42;3.90;;;1.90;;
8632;SDS011;4354;49.832;10.746;2022-07-15T01:41:16;4.30;;;2.17;;
8632;SDS011;4354;49.832;10.746;2022-07-15T01:43:43;5.80;;;2.10;;
8632;SDS011;4354;49.832;10.746;2022-07-15T01:46:10;4.87;;;1.87;;
8632;SDS011;4354;49.832;10.746;2022-07-15T01:48:37;3.83;;;2.07;;
8632;SDS011;4354;49.832;10.746;2022-07-15T01:51:24;2.17;;;1.77;;
8632;SDS011;4354;49.832;10.746;2022-07-15T01:53:50;9.40;;;2.40;;
8632;SDS011;4354;49.832;10.746;2022-07-15T01:56:17;7.27;;;2.00;;
8632;SDS011;4354;49.832;10.746;2022-07-15T01:58:44;5.40;;;2.10;;
8632;SDS011;4354;49.832;10.746;2022-07-15T02:01:11;3.23;;;2.10;;
8632;SDS011;4354;49.832;10.746;2022-07-15T02:03:38;3.87;;;1.77;;
8632;SDS011;4354;49.832;10.746;2022-07-15T02:06:05;3.30;;;1.80;;
8632;SDS011;4354;49.832;10.746;2022-07-15T02:08:33;5.97;;;2.33;;
8632;SDS011;4354;49.832;10.746;2022-07-15T02:10:59;4.03;;;2.63;;
8632;SDS011;4354;49.832;10.746;2022-07-15T02:13:26;3.50;;;2.00;;
8632;SDS011;4354;49.832;10.746;2022-07-15T02:15:53;6.23;;;2.27;;
8632;SDS011;4354;49.832;10.746;2022-07-15T02:18:20;3.27;;;1.90;;
8632;SDS011;4354;49.832;10.746;2022-07-15T02:20:47;5.07;;;1.90;;
8632;SDS011;4354;49.832;10.746;2022-07-15T02:23:14;5.57;;;2.00;;
8632;SDS011;4354;49.832;10.746;2022-07-15T02:25:43;4.73;;;2.00;;
8632;SDS011;4354;49.832;10.746;2022-07-15T02:28:10;5.27;;;1.97;;
8632;SDS011;4354;49.832;10.746;2022-07-15T02:30:39;3.57;;;2.20;;
8632;SDS011;4354;49.832;10.746;2022-07-15T02:33:07;5.00;;;2.10;;
8632;SDS011;4354;49.832;10.746;2022-07-15T02:35:35;3.83;;;1.90;;
8632;SDS011;4354;49.832;10.746;2022-07-15T02:38:03;5.63;;;2.40;;
8632;SDS011;4354;49.832;10.746;2022-07-15T02:40:30;5.57;;;2.20;;
8632;SDS011;4354;49.832;10.746;2022-07-15T02:42:58;2.57;;;2.00;;
8632;SDS011;4354;49.832;10.746;2022-07-15T02:45:27;3.87;;;1.97;;
8632;SDS011;4354;49.832;10.746;2022-07-15T02:47:55;4.03;;;2.10;;
8632;SDS011;4354;49.832;10.746;2022-07-15T02:50:22;3.10;;;1.83;;
8632;SDS011;4354;49.832;10.746;2022-07-15T02:52:49;3.53;;;2.23;;
8632;SDS011;4354;49.832;10.746;2022-07-15T02:55:16;4.93;;;2.00;;
8632;SDS011;4354;49.832;10.746;2022-07-15T02:57:43;4.37;;;2.13;;
8632;SDS011;4354;49.832;10.746;2022-07-15T03:00:11;7.10;;;2.00;;
8632;SDS011;4354;49.832;10.746;2022-07-15T03:02:40;3.90;;;2.40;;
8632;SDS011;4354;49.832;10.746;2022-07-15T03:05:07;3.37;;;2.50;;
8632;SDS011;4354;49.832;10.746;2022-07-15T03:07:34;4.50;;;2.10;;
8632;SDS011;4354;49.832;10.746;2022-07-15T03:10:02;4.17;;;2.50;;
8632;SDS011;4354;49.832;10.746;2022-07-15T03:12:30;4.07;;;2.23;;
8632;SDS011;4354;49.832;10.746;2022-07-15T03:14:58;3.57;;;2.20;;
8632;SDS011;4354;49.832;10.746;2022-07-15T03:17:25;4.53;;;2.30;;
8632;SDS011;4354;49.832;10.746;2022-07-15T03:19:52;2.77;;;2.27;;
8632;SDS011;4354;49.832;10.746;2022-07-15T03:22:24;4.70;;;1.97;;
8632;SDS011;4354;49.832;10.746;2022-07-15T03:24:53;5.23;;;2.37;;
8632;SDS011;4354;49.832;10.746;2022-07-15T03:27:20;3.70;;;2.30;;
8632;SDS011;4354;49.832;10.746;2022-07-15T03:29:47;3.63;;;2.00;;
8632;SDS011;4354;49.832;10.746;2022-07-15T03:32:15;4.07;;;2.47;;
8632;SDS011;4354;49.832;10.746;2022-07-15T03:34:43;5.57;;;2.30;;
8632;SDS011;4354;49.832;10.746;2022-07-15T03:37:10;3.63;;;2.40;;
8632;SDS011;4354;49.832;10.746;2022-07-15T03:39:38;3.43;;;2.47;;
8632;SDS011;4354;49.832;10.746;2022-07-15T03:42:05;2.43;;;2.00;;
8632;SDS011;4354;49.832;10.746;2022-07-15T03:44:33;2.83;;;2.13;;
8632;SDS011;4354;49.832;10.746;2022-07-15T03:47:00;4.87;;;2.17;;
8632;SDS011;4354;49.832;10.746;2022-07-15T03:49:27;3.83;;;2.27;;
8632;SDS011;4354;49.832;10.746;2022-07-15T03:51:54;6.10;;;2.00;;
8632;SDS011;4354;49.832;10.746;2022-07-15T03:54:21;2.87;;;2.53;;
8632;SDS011;4354;49.832;10.746;2022-07-15T03:56:47;3.93;;;2.30;;
8632;SDS011;4354;49.832;10.746;2022-07-15T03:59:16;5.03;;;2.43;;
8632;SDS011;4354;49.832;10.746;2022-07-15T04:01:46;5.63;;;2.50;;
8632;SDS011;4354;49.832;10.746;2022-07-15T04:04:16;4.93;;;2.60;;
8632;SDS011;4354;49.832;10.746;2022-07-15T04:06:43;3.67;;;2.63;;
8632;SDS011;4354;49.832;10.746;2022-07-15T04:09:11;4.73;;;2.30;;
8632;SDS011;4354;49.832;10.746;2022-07-15T04:11:39;4.90;;;2.43;;
8632;SDS011;4354;49.832;10.746;2022-07-15T04:14:12;7.10;;;2.30;;
8632;SDS011;4354;49.832;10.746;2022-07-15T04:16:42;4.27;;;2.30;;
8632;SDS011;4354;49.832;10.746;2022-07-15T04:19:10;6.07;;;2.30;;
8632;SDS011;4354;49.832;10.746;2022-07-15T04:21:37;8.50;;;2.53;;
8632;SDS011;4354;49.832;10.746;2022-07-15T04:24:04;3.93;;;2.53;;
8632;SDS011;4354;49.832;10.746;2022-07-15T04:26:31;3.93;;;2.17;;
8632;SDS011;4354;49.832;10.746;2022-07-15T04:28:58;4.70;;;2.70;;
8632;SDS011;4354;49.832;10.746;2022-07-15T04:31:24;5.30;;;2.83;;
8632;SDS011;4354;49.832;10.746;2022-07-15T04:33:51;3.00;;;2.57;;
8632;SDS011;4354;49.832;10.746;2022-07-15T04:36:18;3.30;;;2.60;;
8632;SDS011;4354;49.832;10.746;2022-07-15T04:38:45;4.23;;;2.60;;
8632;SDS011;4354;49.832;10.746;2022-07-15T04:41:12;3.43;;;2.40;;
8632;SDS011;4354;49.832;10.746;2022-07-15T04:43:39;4.17;;;2.37;;
8632;SDS011;4354;49.832;10.746;2022-07-15T04:46:06;6.00;;;2.47;;
8632;SDS011;4354;49.832;10.746;2022-07-15T04:48:33;5.03;;;2.50;;
8632;SDS011;4354;49.832;10.746;2022-07-15T04:51:19;8.30;;;2.50;;
8632;SDS011;4354;49.832;10.746;2022-07-15T04:53:46;3.47;;;2.30;;
8632;SDS011;4354;49.832;10.746;2022-07-15T04:56:12;7.00;;;2.63;;
8632;SDS011;4354;49.832;10.746;2022-07-15T04:58:40;4.47;;;2.70;;
8632;SDS011;4354;49.832;10.746;2022-07-15T05:01:06;4.83;;;2.50;;
8632;SDS011;4354;49.832;10.746;2022-07-15T05:03:33;3.30;;;2.43;;
8632;SDS011;4354;49.832;10.746;2022-07-15T05:06:00;5.30;;;2.50;;
8632;SDS011;4354;49.832;10.746;2022-07-15T05:08:28;5.23;;;2.40;;
8632;SDS011;4354;49.832;10.746;2022-07-15T05:10:56;5.13;;;2.13;;
8632;SDS011;4354;49.832;10.746;2022-07-15T05:13:24;3.63;;;2.10;;
8632;SDS011;4354;49.832;10.746;2022-07-15T05:15:51;4.23;;;2.13;;
8632;SDS011;4354;49.832;10.746;2022-07-15T05:18:18;5.50;;;2.80;;
8632;SDS011;4354;49.832;10.746;2022-07-15T05:20:45;6.13;;;2.80;;
8632;SDS011;4354;49.832;10.746;2022-07-15T05:23:12;6.73;;;2.60;;
8632;SDS011;4354;49.832;10.746;2022-07-15T05:25:39;7.23;;;2.60;;
8632;SDS011;4354;49.832;10.746;2022-07-15T05:28:06;6.13;;;2.03;;
8632;SDS011;4354;49.832;10.746;2022-07-15T05:30:33;5.47;;;2.40;;
8632;SDS011;4354;49.832;10.746;2022-07-15T05:33:03;3.60;;;1.80;;
8632;SDS011;4354;49.832;10.746;2022-07-15T05:35:30;6.00;;;2.03;;
8632;SDS011;4354;49.832;10.746;2022-07-15T05:37:57;5.37;;;2.57;;
8632;SDS011;4354;49.832;10.746;2022-07-15T05:40:24;6.97;;;2.40;;
8632;SDS011;4354;49.832;10.746;2022-07-15T05:42:51;6.13;;;2.43;;
8632;SDS011;4354;49.832;10.746;2022-07-15T05:45:19;4.43;;;2.43;;
8632;SDS011;4354;49.832;10.746;2022-07-15T05:47:47;5.77;;;2.40;;
8632;SDS011;4354;49.832;10.746;2022-07-15T05:50:15;6.53;;;2.33;;
8632;SDS011;4354;49.832;10.746;2022-07-15T05:52:42;7.73;;;2.00;;
8632;SDS011;4354;49.832;10.746;2022-07-15T05:55:09;2.87;;;1.70;;
8632;SDS011;4354;49.832;10.746;2022-07-15T05:57:37;3.00;;;1.80;;
8632;SDS011;4354;49.832;10.746;2022-07-15T06:00:11;6.00;;;2.13;;
8632;SDS011;4354;49.832;10.746;2022-07-15T06:02:38;2.87;;;1.87;;
8632;SDS011;4354;49.832;10.746;2022-07-15T06:05:05;6.67;;;2.00;;
8632;SDS011;4354;49.832;10.746;2022-07-15T06:07:33;9.07;;;2.30;;
8632;SDS011;4354;49.832;10.746;2022-07-15T06:10:02;5.03;;;2.03;;
8632;SDS011;4354;49.832;10.746;2022-07-15T06:12:29;6.15;;;2.10;;
8632;SDS011;4354;49.832;10.746;2022-07-15T06:14:56;6.10;;;1.90;;
8632;SDS011;4354;49.832;10.746;2022-07-15T06:17:23;5.20;;;2.25;;
8632;SDS011;4354;49.832;10.746;2022-07-15T06:19:50;3.95;;;1.92;;
8632;SDS011;4354;49.832;10.746;2022-07-15T06:22:17;3.85;;;1.70;;
8632;SDS011;4354;49.832;10.746;2022-07-15T06:24:44;3.88;;;1.77;;
8632;SDS011;4354;49.832;10.746;2022-07-15T06:27:11;5.03;;;1.80;;
8632;SDS011;4354;49.832;10.746;2022-07-15T06:29:37;5.45;;;1.83;;
8632;SDS011;4354;49.832;10.746;2022-07-15T06:32:04;2.60;;;1.50;;
8632;SDS011;4354;49.832;10.746;2022-07-15T06:34:34;3.92;;;1.60;;
8632;SDS011;4354;49.832;10.746;2022-07-15T06:37:00;3.95;;;2.00;;
8632;SDS011;4354;49.832;10.746;2022-07-15T06:39:27;5.07;;;1.75;;
8632;SDS011;4354;49.832;10.746;2022-07-15T06:41:54;3.67;;;2.00;;
8632;SDS011;4354;49.832;10.746;2022-07-15T06:44:21;11.30;;;2.00;;
8632;SDS011;4354;49.832;10.746;2022-07-15T06:46:48;5.28;;;1.75;;
8632;SDS011;4354;49.832;10.746;2022-07-15T06:49:18;3.78;;;1.50;;
8632;SDS011;4354;49.832;10.746;2022-07-15T06:51:45;7.30;;;1.83;;
8632;SDS011;4354;49.832;10.746;2022-07-15T06:54:12;3.58;;;1.73;;
8632;SDS011;4354;49.832;10.746;2022-07-15T06:56:40;3.63;;;1.60;;
8632;SDS011;4354;49.832;10.746;2022-07-15T06:59:06;4.22;;;1.65;;
8632;SDS011;4354;49.832;10.746;2022-07-15T07:01:33;4.35;;;1.60;;
8632;SDS011;4354;49.832;10.746;2022-07-15T07:04:00;4.80;;;1.67;;
8632;SDS011;4354;49.832;10.746;2022-07-15T07:06:27;3.97;;;1.40;;
8632;SDS011;4354;49.832;10.746;2022-07-15T07:08:54;4.75;;;1.65;;
8632;SDS011;4354;49.832;10.746;2022-07-15T07:11:21;5.30;;;1.60;;
8632;SDS011;4354;49.832;10.746;2022-07-15T07:13:48;5.47;;;1.60;;
8632;SDS011;4354;49.832;10.746;2022-07-15T07:16:15;5.90;;;1.70;;
8632;SDS011;4354;49.832;10.746;2022-07-15T07:18:43;5.35;;;1.55;;
8632;SDS011;4354;49.832;10.746;2022-07-15T07:21:14;2.63;;;1.42;;
8632;SDS011;4354;49.832;10.746;2022-07-15T07:23:41;5.70;;;1.55;;
8632;SDS011;4354;49.832;10.746;2022-07-15T07:26:09;6.00;;;1.58;;
8632;SDS011;4354;49.832;10.746;2022-07-15T07:28:37;5.38;;;1.52;;
8632;SDS011;4354;49.832;10.746;2022-07-15T07:31:07;2.92;;;1.50;;
8632;SDS011;4354;49.832;10.746;2022-07-15T07:33:36;4.45;;;1.27;;
8632;SDS011;4354;49.832;10.746;2022-07-15T07:36:04;4.43;;;1.38;;
8632;SDS011;4354;49.832;10.746;2022-07-15T07:38:32;5.78;;;1.67;;
8632;SDS011;4354;49.832;10.746;2022-07-15T07:41:00;4.63;;;1.70;;
8632;SDS011;4354;49.832;10.746;2022-07-15T07:43:28;5.93;;;1.83;;
8632;SDS011;4354;49.832;10.746;2022-07-15T07:45:55;9.05;;;1.80;;
8632;SDS011;4354;49.832;10.746;2022-07-15T07:48:22;2.72;;;1.35;;
8632;SDS011;4354;49.832;10.746;2022-07-15T07:50:49;6.18;;;1.48;;
8632;SDS011;4354;49.832;10.746;2022-07-15T07:53:19;6.55;;;1.63;;
8632;SDS011;4354;49.832;10.746;2022-07-15T07:55:46;4.15;;;1.52;;
8632;SDS011;4354;49.832;10.746;2022-07-15T07:58:14;4.63;;;1.67;;
8632;SDS011;4354;49.832;10.746;2022-07-15T08:00:43;5.72;;;1.63;;
8632;SDS011;4354;49.832;10.746;2022-07-15T08:03:11;6.25;;;1.92;;
8632;SDS011;4354;49.832;10.746;2022-07-15T08:05:38;3.92;;;1.60;;
8632;SDS011;4354;49.832;10.746;2022-07-15T08:08:15;6.40;;;1.60;;
8632;SDS011;4354;49.832;10.746;2022-07-15T08:10:47;3.97;;;1.60;;
8632;SDS011;4354;49.832;10.746;2022-07-15T08:13:17;5.95;;;1.50;;
8632;SDS011;4354;49.832;10.746;2022-07-15T08:15:45;6.88;;;1.77;;
8632;SDS011;4354;49.832;10.746;2022-07-15T08:18:13;3.42;;;1.30;;
8632;SDS011;4354;49.832;10.746;2022-07-15T08:20:43;5.07;;;1.77;;
8632;SDS011;4354;49.832;10.746;2022-07-15T08:23:10;3.00;;;1.33;;
8632;SDS011;4354;49.832;10.746;2022-07-15T08:25:37;3.67;;;1.52;;
8632;SDS011;4354;49.832;10.746;2022-07-15T08:28:05;3.05;;;1.58;;
8632;SDS011;4354;49.832;10.746;2022-07-15T08:30:36;2.95;;;1.40;;
8632;SDS011;4354;49.832;10.746;2022-07-15T08:33:03;4.75;;;1.10;;
8632;SDS011;4354;49.832;10.746;2022-07-15T08:35:30;5.65;;;1.60;;
8632;SDS011;4354;49.832;10.746;2022-07-15T08:37:57;9.07;;;1.80;;
8632;SDS011;4354;49.832;10.746;2022-07-15T08:40:25;4.10;;;1.08;;
8632;SDS011;4354;49.832;10.746;2022-07-15T08:42:53;2.85;;;1.10;;
8632;SDS011;4354;49.832;10.746;2022-07-15T08:45:19;4.88;;;1.40;;
8632;SDS011;4354;49.832;10.746;2022-07-15T08:47:46;3.83;;;1.27;;
8632;SDS011;4354;49.832;10.746;2022-07-15T08:50:20;3.88;;;1.38;;
8632;SDS011;4354;49.832;10.746;2022-07-15T08:52:48;4.18;;;1.40;;
8632;SDS011;4354;49.832;10.746;2022-07-15T08:55:18;4.53;;;1.60;;
8632;SDS011;4354;49.832;10.746;2022-07-15T08:57:49;2.05;;;1.20;;
8632;SDS011;4354;49.832;10.746;2022-07-15T09:00:19;2.25;;;1.10;;
8632;SDS011;4354;49.832;10.746;2022-07-15T09:02:52;3.05;;;1.20;;
8632;SDS011;4354;49.832;10.746;2022-07-15T09:08:09;4.25;;;1.10;;
8632;SDS011;4354;49.832;10.746;2022-07-15T09:10:41;5.75;;;1.58;;
8632;SDS011;4354;49.832;10.746;2022-07-15T09:16:04;2.83;;;1.10;;
8632;SDS011;4354;49.832;10.746;2022-07-15T09:18:39;4.20;;;1.48;;
8632;SDS011;4354;49.832;10.746;2022-07-15T09:21:13;4.05;;;1.23;;
8632;SDS011;4354;49.832;10.746;2022-07-15T09:23:41;4.72;;;1.45;;
8632;SDS011;4354;49.832;10.746;2022-07-15T09:26:21;3.22;;;1.30;;
8632;SDS011;4354;49.832;10.746;2022-07-15T09:28:49;4.40;;;1.50;;
8632;SDS011;4354;49.832;10.746;2022-07-15T09:31:27;4.47;;;1.35;;
8632;SDS011;4354;49.832;10.746;2022-07-15T09:34:13;4.75;;;1.52;;
8632;SDS011;4354;49.832;10.746;2022-07-15T09:36:44;5.45;;;1.67;;
8632;SDS011;4354;49.832;10.746;2022-07-15T09:39:17;4.03;;;1.30;;
8632;SDS011;4354;49.832;10.746;2022-07-15T09:41:45;2.60;;;1.35;;
8632;SDS011;4354;49.832;10.746;2022-07-15T09:44:22;4.30;;;1.42;;
8632;SDS011;4354;49.832;10.746;2022-07-15T09:54:22;3.85;;;1.52;;
8632;SDS011;4354;49.832;10.746;2022-07-15T09:56:50;6.70;;;1.70;;
8632;SDS011;4354;49.832;10.746;2022-07-15T09:59:18;4.47;;;1.55;;
8632;SDS011;4354;49.832;10.746;2022-07-15T10:01:45;3.17;;;1.20;;
8632;SDS011;4354;49.832;10.746;2022-07-15T10:04:15;4.22;;;1.33;;
8632;SDS011;4354;49.832;10.746;2022-07-15T10:06:43;3.60;;;1.40;;
8632;SDS011;4354;49.832;10.746;2022-07-15T10:09:34;3.55;;;1.35;;
8632;SDS011;4354;49.832;10.746;2022-07-15T10:12:03;2.05;;;1.60;;
8632;SDS011;4354;49.832;10.746;2022-07-15T10:28:56;3.83;;;1.30;;
8632;SDS011;4354;49.832;10.746;2022-07-15T10:31:28;4.65;;;1.50;;
8632;SDS011;4354;49.832;10.746;2022-07-15T10:39:20;3.70;;;1.25;;
8632;SDS011;4354;49.832;10.746;2022-07-15T10:41:56;3.08;;;1.30;;
8632;SDS011;4354;49.832;10.746;2022-07-15T10:44:25;3.88;;;1.48;;
8632;SDS011;4354;49.832;10.746;2022-07-15T10:49:41;2.60;;;1.30;;
8632;SDS011;4354;49.832;10.746;2022-07-15T10:52:17;4.88;;;1.13;;
8632;SDS011;4354;49.832;10.746;2022-07-15T10:54:45;2.17;;;1.23;;
8632;SDS011;4354;49.832;10.746;2022-07-15T10:57:17;4.53;;;1.33;;
8632;SDS011;4354;49.832;10.746;2022-07-15T10:59:50;3.63;;;1.40;;
8632;SDS011;4354;49.832;10.746;2022-07-15T11:02:22;4.68;;;1.40;;
8632;SDS011;4354;49.832;10.746;2022-07-15T11:04:52;4.28;;;1.38;;
8632;SDS011;4354;49.832;10.746;2022-07-15T11:07:45;2.20;;;1.27;;
8632;SDS011;4354;49.832;10.746;2022-07-15T11:10:13;4.38;;;1.60;;
8632;SDS011;4354;49.832;10.746;2022-07-15T11:15:17;5.45;;;1.55;;
8632;SDS011;4354;49.832;10.746;2022-07-15T11:17:55;5.28;;;1.70;;
8632;SDS011;4354;49.832;10.746;2022-07-15T11:20:33;2.25;;;1.30;;
8632;SDS011;4354;49.832;10.746;2022-07-15T11:23:02;3.78;;;1.55;;
8632;SDS011;4354;49.832;10.746;2022-07-15T11:25:34;4.53;;;1.77;;
8632;SDS011;4354;49.832;10.746;2022-07-15T11:30:42;2.90;;;1.55;;
8632;SDS011;4354;49.832;10.746;2022-07-15T11:33:22;2.20;;;1.38;;
8632;SDS011;4354;49.832;10.746;2022-07-15T11:35:54;2.40;;;1.60;;
8632;SDS011;4354;49.832;10.746;2022-07-15T11:38:23;2.03;;;1.40;;
8632;SDS011;4354;49.832;10.746;2022-07-15T11:41:01;5.05;;;1.90;;
8632;SDS011;4354;49.832;10.746;2022-07-15T11:43:58;3.35;;;1.60;;
8632;SDS011;4354;49.832;10.746;2022-07-15T11:46:46;2.08;;;1.50;;
8632;SDS011;4354;49.832;10.746;2022-07-15T11:49:27;2.83;;;1.70;;
8632;SDS011;4354;49.832;10.746;2022-07-15T11:51:59;4.97;;;1.90;;
8632;SDS011;4354;49.832;10.746;2022-07-15T11:54:27;3.17;;;1.55;;
8632;SDS011;4354;49.832;10.746;2022-07-15T11:56:58;2.83;;;1.67;;
8632;SDS011;4354;49.832;10.746;2022-07-15T11:59:26;1.85;;;1.50;;
8632;SDS011;4354;49.832;10.746;2022-07-15T12:02:01;4.03;;;1.60;;
8632;SDS011;4354;49.832;10.746;2022-07-15T12:04:31;4.82;;;1.52;;
8632;SDS011;4354;49.832;10.746;2022-07-15T12:07:03;5.10;;;1.45;;
8632;SDS011;4354;49.832;10.746;2022-07-15T12:09:47;2.80;;;1.70;;
8632;SDS011;4354;49.832;10.746;2022-07-15T12:12:17;2.13;;;1.40;;
8632;SDS011;4354;49.832;10.746;2022-07-15T12:14:47;3.40;;;1.45;;
8632;SDS011;4354;49.832;10.746;2022-07-15T12:17:16;5.22;;;1.55;;
8632;SDS011;4354;49.832;10.746;2022-07-15T12:19:48;2.55;;;1.35;;
8632;SDS011;4354;49.832;10.746;2022-07-15T12:22:18;3.38;;;1.42;;
8632;SDS011;4354;49.832;10.746;2022-07-15T12:24:46;3.05;;;1.35;;
8632;SDS011;4354;49.832;10.746;2022-07-15T12:27:34;2.65;;;1.70;;
8632;SDS011;4354;49.832;10.746;2022-07-15T12:30:06;6.57;;;1.70;;
8632;SDS011;4354;49.832;10.746;2022-07-15T12:32:36;3.33;;;1.40;;
8632;SDS011;4354;49.832;10.746;2022-07-15T12:35:04;4.03;;;1.52;;
8632;SDS011;4354;49.832;10.746;2022-07-15T12:40:00;5.13;;;1.50;;
8632;SDS011;4354;49.832;10.746;2022-07-15T12:42:45;2.42;;;1.45;;
8632;SDS011;4354;49.832;10.746;2022-07-15T12:45:28;6.43;;;1.83;;
8632;SDS011;4354;49.832;10.746;2022-07-15T12:48:03;3.20;;;1.55;;
8632;SDS011;4354;49.832;10.746;2022-07-15T12:50:33;3.97;;;1.40;;
8632;SDS011;4354;49.832;10.746;2022-07-15T12:53:03;4.80;;;1.75;;
8632;SDS011;4354;49.832;10.746;2022-07-15T12:55:31;3.53;;;1.60;;
8632;SDS011;4354;49.832;10.746;2022-07-15T12:58:03;4.10;;;1.73;;
8632;SDS011;4354;49.832;10.746;2022-07-15T13:00:30;4.93;;;2.08;;
8632;SDS011;4354;49.832;10.746;2022-07-15T13:05:36;3.58;;;1.77;;
8632;SDS011;4354;49.832;10.746;2022-07-15T13:08:11;2.90;;;1.80;;
8632;SDS011;4354;49.832;10.746;2022-07-15T13:10:42;5.82;;;1.70;;
8632;SDS011;4354;49.832;10.746;2022-07-15T13:13:11;2.70;;;1.60;;
8632;SDS011;4354;49.832;10.746;2022-07-15T13:15:41;2.92;;;1.80;;
8632;SDS011;4354;49.832;10.746;2022-07-15T13:18:08;2.15;;;1.40;;
8632;SDS011;4354;49.832;10.746;2022-07-15T13:20:35;2.80;;;1.67;;
8632;SDS011;4354;49.832;10.746;2022-07-15T13:23:03;4.18;;;1.48;;
8632;SDS011;4354;49.832;10.746;2022-07-15T13:25:30;4.25;;;1.60;;
8632;SDS011;4354;49.832;10.746;2022-07-15T13:27:58;9.35;;;1.80;;
8632;SDS011;4354;49.832;10.746;2022-07-15T13:30:25;3.78;;;1.60;;
8632;SDS011;4354;49.832;10.746;2022-07-15T13:32:53;4.50;;;1.70;;
8632;SDS011;4354;49.832;10.746;2022-07-15T13:35:20;2.13;;;1.67;;
8632;SDS011;4354;49.832;10.746;2022-07-15T13:37:46;8.00;;;2.00;;
8632;SDS011;4354;49.832;10.746;2022-07-15T13:40:13;6.05;;;1.70;;
8632;SDS011;4354;49.832;10.746;2022-07-15T13:42:41;3.67;;;1.70;;
8632;SDS011;4354;49.832;10.746;2022-07-15T13:45:08;4.07;;;1.80;;
8632;SDS011;4354;49.832;10.746;2022-07-15T13:47:37;3.10;;;1.58;;
8632;SDS011;4354;49.832;10.746;2022-07-15T13:50:05;2.95;;;1.63;;
8632;SDS011;4354;49.832;10.746;2022-07-15T13:52:54;10.32;;;2.45;;
8632;SDS011;4354;49.832;10.746;2022-07-15T13:55:23;8.68;;;2.50;;
8632;SDS011;4354;49.832;10.746;2022-07-15T13:57:51;5.38;;;1.45;;
8632;SDS011;4354;49.832;10.746;2022-07-15T14:00:19;3.33;;;1.40;;
8632;SDS011;4354;49.832;10.746;2022-07-15T14:02:50;1.85;;;1.40;;
8632;SDS011;4354;49.832;10.746;2022-07-15T14:05:18;2.80;;;1.50;;
8632;SDS011;4354;49.832;10.746;2022-07-15T14:07:45;2.08;;;1.70;;
8632;SDS011;4354;49.832;10.746;2022-07-15T14:10:13;3.65;;;1.60;;
8632;SDS011;4354;49.832;10.746;2022-07-15T14:12:40;7.78;;;1.90;;
8632;SDS011;4354;49.832;10.746;2022-07-15T14:15:07;3.20;;;1.50;;
8632;SDS011;4354;49.832;10.746;2022-07-15T14:17:35;2.28;;;1.80;;
8632;SDS011;4354;49.832;10.746;2022-07-15T14:20:02;1.80;;;1.60;;
8632;SDS011;4354;49.832;10.746;2022-07-15T14:22:33;14.77;;;2.53;;
8632;SDS011;4354;49.832;10.746;2022-07-15T14:25:00;6.35;;;2.03;;
8632;SDS011;4354;49.832;10.746;2022-07-15T14:27:28;4.90;;;1.98;;
8632;SDS011;4354;49.832;10.746;2022-07-15T14:29:56;3.47;;;1.83;;
8632;SDS011;4354;49.832;10.746;2022-07-15T14:32:28;2.53;;;1.88;;
8632;SDS011;4354;49.832;10.746;2022-07-15T14:34:59;3.33;;;1.45;;
8632;SDS011;4354;49.832;10.746;2022-07-15T14:37:26;8.13;;;1.92;;
8632;SDS011;4354;49.832;10.746;2022-07-15T14:39:59;3.15;;;1.70;;
8632;SDS011;4354;49.832;10.746;2022-07-15T14:42:27;2.70;;;1.60;;
8632;SDS011;4354;49.832;10.746;2022-07-15T14:44:54;2.53;;;1.95;;
8632;SDS011;4354;49.832;10.746;2022-07-15T14:47:21;3.45;;;1.70;;
8632;SDS011;4354;49.832;10.746;2022-07-15T14:49:48;3.53;;;1.60;;
8632;SDS011;4354;49.832;10.746;2022-07-15T14:52:15;3.83;;;1.77;;
8632;SDS011;4354;49.832;10.746;2022-07-15T14:54:42;3.70;;;1.80;;
8632;SDS011;4354;49.832;10.746;2022-07-15T14:57:09;3.00;;;1.60;;
8632;SDS011;4354;49.832;10.746;2022-07-15T14:59:36;3.03;;;1.70;;
8632;SDS011;4354;49.832;10.746;2022-07-15T15:02:05;3.65;;;1.80;;
8632;SDS011;4354;49.832;10.746;2022-07-15T15:04:33;2.47;;;1.73;;
8632;SDS011;4354;49.832;10.746;2022-07-15T15:07:00;3.63;;;1.90;;
8632;SDS011;4354;49.832;10.746;2022-07-15T15:09:28;3.28;;;1.70;;
8632;SDS011;4354;49.832;10.746;2022-07-15T15:11:55;4.70;;;1.65;;
8632;SDS011;4354;49.832;10.746;2022-07-15T15:14:23;4.13;;;1.80;;
8632;SDS011;4354;49.832;10.746;2022-07-15T15:16:50;3.58;;;1.90;;
8632;SDS011;4354;49.832;10.746;2022-07-15T15:19:28;6.10;;;2.40;;
8632;SDS011;4354;49.832;10.746;2022-07-15T15:21:55;4.47;;;1.63;;
8632;SDS011;4354;49.832;10.746;2022-07-15T15:24:22;3.63;;;1.80;;
8632;SDS011;4354;49.832;10.746;2022-07-15T15:26:49;2.28;;;1.90;;
8632;SDS011;4354;49.832;10.746;2022-07-15T15:29:17;19.00;;;2.45;;
8632;SDS011;4354;49.832;10.746;2022-07-15T15:31:45;8.82;;;2.00;;
8632;SDS011;4354;49.832;10.746;2022-07-15T15:34:14;8.52;;;2.20;;
8632;SDS011;4354;49.832;10.746;2022-07-15T15:36:42;4.00;;;2.00;;
8632;SDS011;4354;49.832;10.746;2022-07-15T15:39:10;9.98;;;2.40;;
8632;SDS011;4354;49.832;10.746;2022-07-15T15:41:37;11.05;;;2.47;;
8632;SDS011;4354;49.832;10.746;2022-07-15T15:44:05;9.45;;;2.15;;
8632;SDS011;4354;49.832;10.746;2022-07-15T15:46:32;3.47;;;1.73;;
8632;SDS011;4354;49.832;10.746;2022-07-15T15:48:59;2.58;;;1.90;;
8632;SDS011;4354;49.832;10.746;2022-07-15T15:51:26;5.40;;;1.63;;
8632;SDS011;4354;49.832;10.746;2022-07-15T15:53:53;9.70;;;2.20;;
8632;SDS011;4354;49.832;10.746;2022-07-15T15:56:20;2.65;;;1.98;;